sensor_id;sensor_type;location;lat;lon;timestamp;pressure;altitude;pressure_sealevel;temperature;humidity
33949;BME280;20229;49.856;19.030;2024-03-23T00:55:06;100921.29;;;10.32;80.43
33949;BME280;20229;49.856;19.030;2024-03-23T01:00:21;100924.18;;;10.29;80.56
33949;BME280;20229;49.856;19.030;2024-03-23T01:05:37;100922.48;;;10.26;79.98
33949;BME280;20229;49.856;19.030;2024-03-23T01:10:57;100916.17;;;10.24;80.68
33949;BME280;20229;49.856;19.030;2024-03-23T01:16:11;100905.34;;;10.23;80.46
33949;BME280;20229;49.856;19.030;2024-03-23T01:21:25;100896.19;;;10.24;78.69
33949;BME280;20229;49.856;19.030;2024-03-23T01:26:39;100892.37;;;10.28;79.34
33949;BME280;20229;49.856;19.030;2024-03-23T01:31:53;100889.48;;;10.31;78.18
33949;BME280;20229;49.856;19.030;2024-03-23T01:37:07;100885.63;;;10.35;78.39
33949;BME280;20229;49.856;19.030;2024-03-23T01:42:21;100878.25;;;10.37;77.62
33949;BME280;20229;49.856;19.030;2024-03-23T01:47:35;100875.05;;;10.46;76.29
33949;BME280;20229;49.856;19.030;2024-03-23T01:52:50;100860.12;;;10.53;76.97
33949;BME280;20229;49.856;19.030;2024-03-23T01:58:04;100865.41;;;10.57;77.09
33949;BME280;20229;49.856;19.030;2024-03-23T02:03:26;100863.61;;;10.56;77.67
33949;BME280;20229;49.856;19.030;2024-03-23T02:09:12;100858.26;;;10.54;78.50
33949;BME280;20229;49.856;19.030;2024-03-23T02:14:27;100847.08;;;10.59;78.62
33949;BME280;20229;49.856;19.030;2024-03-23T02:19:41;100851.75;;;10.57;77.90
33949;BME280;20229;49.856;19.030;2024-03-23T02:24:58;100843.37;;;10.60;78.60
33949;BME280;20229;49.856;19.030;2024-03-23T02:30:12;100839.93;;;10.56;79.36
33949;BME280;20229;49.856;19.030;2024-03-23T02:35:25;100836.31;;;10.56;79.83
33949;BME280;20229;49.856;19.030;2024-03-23T02:40:39;100838.27;;;10.53;79.94
33949;BME280;20229;49.856;19.030;2024-03-23T02:45:54;100822.84;;;10.52;80.00
33949;BME280;20229;49.856;19.030;2024-03-23T02:51:08;100813.93;;;10.49;80.35
33949;BME280;20229;49.856;19.030;2024-03-23T02:56:22;100809.39;;;10.49;80.97
33949;BME280;20229;49.856;19.030;2024-03-23T03:01:36;100795.97;;;10.45;81.95
33949;BME280;20229;49.856;19.030;2024-03-23T03:06:50;100791.38;;;10.45;81.69
33949;BME280;20229;49.856;19.030;2024-03-23T03:12:05;100785.04;;;10.45;80.31
33949;BME280;20229;49.856;19.030;2024-03-23T03:17:19;100779.37;;;10.49;81.00
33949;BME280;20229;49.856;19.030;2024-03-23T03:22:33;100758.30;;;10.51;79.35
33949;BME280;20229;49.856;19.030;2024-03-23T03:27:47;100756.02;;;10.60;79.18
33949;BME280;20229;49.856;19.030;2024-03-23T03:33:01;100754.09;;;10.62;79.27
33949;BME280;20229;49.856;19.030;2024-03-23T03:38:15;100750.23;;;10.66;79.58
33949;BME280;20229;49.856;19.030;2024-03-23T03:43:33;100749.24;;;10.67;80.19
33949;BME280;20229;49.856;19.030;2024-03-23T03:48:51;100737.11;;;10.72;78.15
33949;BME280;20229;49.856;19.030;2024-03-23T03:54:05;100750.96;;;10.85;77.00
33949;BME280;20229;49.856;19.030;2024-03-23T03:59:19;100748.66;;;10.93;77.86
33949;BME280;20229;49.856;19.030;2024-03-23T04:04:34;100739.49;;;10.94;78.49
33949;BME280;20229;49.856;19.030;2024-03-23T04:09:49;100741.28;;;10.95;78.13
33949;BME280;20229;49.856;19.030;2024-03-23T04:15:03;100741.87;;;11.00;77.14
33949;BME280;20229;49.856;19.030;2024-03-23T04:20:18;100732.46;;;11.06;77.67
33949;BME280;20229;49.856;19.030;2024-03-23T04:25:32;100722.30;;;11.08;78.45
33949;BME280;20229;49.856;19.030;2024-03-23T04:30:46;100721.25;;;11.11;78.13
33949;BME280;20229;49.856;19.030;2024-03-23T04:36:00;100675.57;;;11.13;79.56
33949;BME280;20229;49.856;19.030;2024-03-23T04:41:14;100675.69;;;11.11;82.31
33949;BME280;20229;49.856;19.030;2024-03-23T04:46:28;100687.77;;;11.07;85.39
33949;BME280;20229;49.856;19.030;2024-03-23T04:51:47;100690.86;;;11.01;85.47
33949;BME280;20229;49.856;19.030;2024-03-23T04:57:00;100672.19;;;10.93;87.34
33949;BME280;20229;49.856;19.030;2024-03-23T05:02:15;100659.52;;;10.92;86.38
33949;BME280;20229;49.856;19.030;2024-03-23T05:07:29;100661.27;;;10.93;85.33
33949;BME280;20229;49.856;19.030;2024-03-23T05:12:43;100657.89;;;11.04;81.58
33949;BME280;20229;49.856;19.030;2024-03-23T05:17:59;100650.63;;;11.19;79.99
33949;BME280;20229;49.856;19.030;2024-03-23T05:23:12;100638.98;;;11.31;80.09
33949;BME280;20229;49.856;19.030;2024-03-23T05:28:26;100638.58;;;11.37;80.22
33949;BME280;20229;49.856;19.030;2024-03-23T05:33:40;100634.61;;;11.43;80.63
33949;BME280;20229;49.856;19.030;2024-03-23T05:38:54;100640.19;;;11.41;82.03
33949;BME280;20229;49.856;19.030;2024-03-23T05:44:09;100638.41;;;11.40;82.63
33949;BME280;20229;49.856;19.030;2024-03-23T05:49:24;100641.53;;;11.34;81.46
33949;BME280;20229;49.856;19.030;2024-03-23T05:54:39;100635.62;;;11.26;81.52
33949;BME280;20229;49.856;19.030;2024-03-23T05:59:54;100645.86;;;11.22;81.64
33949;BME280;20229;49.856;19.030;2024-03-23T06:05:07;100654.17;;;11.21;82.12
33949;BME280;20229;49.856;19.030;2024-03-23T06:10:22;100661.55;;;11.19;83.00
33949;BME280;20229;49.856;19.030;2024-03-23T06:15:36;100659.01;;;11.16;82.79
33949;BME280;20229;49.856;19.030;2024-03-23T06:20:51;100662.62;;;11.16;82.55
33949;BME280;20229;49.856;19.030;2024-03-23T06:26:05;100670.55;;;11.21;82.06
33949;BME280;20229;49.856;19.030;2024-03-23T06:31:19;100653.99;;;11.24;82.87
33949;BME280;20229;49.856;19.030;2024-03-23T06:36:35;100660.84;;;11.31;82.50
33949;BME280;20229;49.856;19.030;2024-03-23T06:41:53;100655.20;;;11.34;82.40
33949;BME280;20229;49.856;19.030;2024-03-23T06:47:07;100639.97;;;11.44;82.81
33949;BME280;20229;49.856;19.030;2024-03-23T06:52:21;100630.82;;;11.45;82.29
33949;BME280;20229;49.856;19.030;2024-03-23T06:57:35;100628.77;;;11.49;83.11
33949;BME280;20229;49.856;19.030;2024-03-23T07:02:50;100618.14;;;11.73;84.00
33949;BME280;20229;49.856;19.030;2024-03-23T07:08:04;100597.09;;;12.04;83.28
33949;BME280;20229;49.856;19.030;2024-03-23T07:13:19;100588.57;;;12.64;81.28
33949;BME280;20229;49.856;19.030;2024-03-23T07:18:33;100577.55;;;13.96;75.81
33949;BME280;20229;49.856;19.030;2024-03-23T07:23:48;100579.41;;;15.06;75.16
33949;BME280;20229;49.856;19.030;2024-03-23T07:29:02;100570.26;;;16.43;70.57
33949;BME280;20229;49.856;19.030;2024-03-23T07:34:17;100559.40;;;17.17;64.08
33949;BME280;20229;49.856;19.030;2024-03-23T07:39:31;100556.22;;;16.35;66.29
33949;BME280;20229;49.856;19.030;2024-03-23T07:44:51;100560.87;;;15.90;69.52
33949;BME280;20229;49.856;19.030;2024-03-23T07:50:05;100549.37;;;15.96;70.62
33949;BME280;20229;49.856;19.030;2024-03-23T07:55:19;100530.33;;;16.27;65.05
33949;BME280;20229;49.856;19.030;2024-03-23T08:00:35;100532.23;;;16.69;63.60
33949;BME280;20229;49.856;19.030;2024-03-23T08:05:49;100534.34;;;17.09;61.22
33949;BME280;20229;49.856;19.030;2024-03-23T08:11:04;100537.12;;;17.30;59.27
33949;BME280;20229;49.856;19.030;2024-03-23T08:16:17;100527.02;;;17.19;59.12
33949;BME280;20229;49.856;19.030;2024-03-23T08:21:32;100515.22;;;17.59;57.73
33949;BME280;20229;49.856;19.030;2024-03-23T08:26:46;100512.19;;;17.83;55.12
33949;BME280;20229;49.856;19.030;2024-03-23T08:32:00;100493.67;;;17.95;55.26
33949;BME280;20229;49.856;19.030;2024-03-23T08:37:14;100495.18;;;18.19;54.54
33949;BME280;20229;49.856;19.030;2024-03-23T08:42:28;100483.31;;;18.47;54.72
33949;BME280;20229;49.856;19.030;2024-03-23T08:47:42;100466.49;;;18.79;51.98
33949;BME280;20229;49.856;19.030;2024-03-23T08:52:56;100458.05;;;19.00;52.38
33949;BME280;20229;49.856;19.030;2024-03-23T08:58:10;100460.52;;;19.03;51.39
33949;BME280;20229;49.856;19.030;2024-03-23T09:03:30;100450.03;;;19.17;50.80
33949;BME280;20229;49.856;19.030;2024-03-23T09:08:45;100442.79;;;19.53;51.84
33949;BME280;20229;49.856;19.030;2024-03-23T09:14:02;100422.09;;;19.94;47.56
33949;BME280;20229;49.856;19.030;2024-03-23T09:19:17;100404.81;;;20.28;47.28
33949;BME280;20229;49.856;19.030;2024-03-23T09:24:31;100398.55;;;20.53;47.47
33949;BME280;20229;49.856;19.030;2024-03-23T09:29:45;100383.30;;;20.75;44.65
33949;BME280;20229;49.856;19.030;2024-03-23T09:34:59;100374.90;;;20.85;43.58
33949;BME280;20229;49.856;19.030;2024-03-23T09:40:13;100359.67;;;20.89;42.87
33949;BME280;20229;49.856;19.030;2024-03-23T09:45:28;100351.94;;;21.01;44.31
33949;BME280;20229;49.856;19.030;2024-03-23T09:52:14;100332.09;;;21.14;42.52
33949;BME280;20229;49.856;19.030;2024-03-23T09:57:40;100327.90;;;21.10;43.96
33949;BME280;20229;49.856;19.030;2024-03-23T10:02:58;100311.35;;;21.00;43.43
33949;BME280;20229;49.856;19.030;2024-03-23T10:08:19;100293.40;;;20.86;44.93
33949;BME280;20229;49.856;19.030;2024-03-23T10:13:34;100293.66;;;21.01;43.77
33949;BME280;20229;49.856;19.030;2024-03-23T10:18:49;100276.72;;;21.12;43.74
33949;BME280;20229;49.856;19.030;2024-03-23T10:24:08;100262.70;;;21.14;44.02
33949;BME280;20229;49.856;19.030;2024-03-23T10:29:22;100252.97;;;21.10;44.51
33949;BME280;20229;49.856;19.030;2024-03-23T10:34:37;100252.69;;;20.95;44.35
33949;BME280;20229;49.856;19.030;2024-03-23T10:39:52;100231.82;;;20.83;43.84
33949;BME280;20229;49.856;19.030;2024-03-23T10:45:07;100226.59;;;20.80;44.02
33949;BME280;20229;49.856;19.030;2024-03-23T10:50:21;100227.09;;;20.75;44.00
33949;BME280;20229;49.856;19.030;2024-03-23T10:55:36;100210.14;;;20.78;43.51
33949;BME280;20229;49.856;19.030;2024-03-23T11:00:50;100204.41;;;20.80;44.07
33949;BME280;20229;49.856;19.030;2024-03-23T11:06:05;100184.98;;;21.14;43.99
33949;BME280;20229;49.856;19.030;2024-03-23T11:11:21;100179.55;;;21.46;42.98
33949;BME280;20229;49.856;19.030;2024-03-23T11:16:37;100161.01;;;21.71;43.25
33949;BME280;20229;49.856;19.030;2024-03-23T11:21:54;100127.33;;;21.83;40.93
33949;BME280;20229;49.856;19.030;2024-03-23T11:27:17;100109.27;;;22.03;40.40
33949;BME280;20229;49.856;19.030;2024-03-23T11:32:32;100095.19;;;22.13;40.92
33949;BME280;20229;49.856;19.030;2024-03-23T11:37:46;100085.81;;;22.30;41.23
33949;BME280;20229;49.856;19.030;2024-03-23T11:43:01;100059.02;;;22.29;38.93
33949;BME280;20229;49.856;19.030;2024-03-23T11:48:19;100044.61;;;22.34;40.27
33949;BME280;20229;49.856;19.030;2024-03-23T11:53:34;100015.55;;;22.36;38.58
33949;BME280;20229;49.856;19.030;2024-03-23T11:58:49;100016.22;;;22.47;38.11
33949;BME280;20229;49.856;19.030;2024-03-23T12:04:06;99999.52;;;22.47;37.18
33949;BME280;20229;49.856;19.030;2024-03-23T12:09:20;100012.71;;;22.53;37.97
33949;BME280;20229;49.856;19.030;2024-03-23T12:14:34;99985.20;;;22.58;38.19
33949;BME280;20229;49.856;19.030;2024-03-23T12:19:48;99971.99;;;22.60;38.07
33949;BME280;20229;49.856;19.030;2024-03-23T12:25:03;99960.00;;;22.59;38.08
33949;BME280;20229;49.856;19.030;2024-03-23T12:30:17;99954.11;;;22.54;37.35
33949;BME280;20229;49.856;19.030;2024-03-23T12:35:31;99943.91;;;22.47;38.38
33949;BME280;20229;49.856;19.030;2024-03-23T12:40:48;99923.93;;;22.43;37.32
33949;BME280;20229;49.856;19.030;2024-03-23T12:46:03;99923.43;;;22.39;38.05
33949;BME280;20229;49.856;19.030;2024-03-23T12:51:16;99900.52;;;22.37;37.50
33949;BME280;20229;49.856;19.030;2024-03-23T12:56:30;99914.78;;;22.34;37.28
33949;BME280;20229;49.856;19.030;2024-03-23T13:01:45;99909.27;;;22.26;37.09
33949;BME280;20229;49.856;19.030;2024-03-23T13:06:59;99886.14;;;22.26;37.02
33949;BME280;20229;49.856;19.030;2024-03-23T13:12:13;99876.94;;;22.25;36.04
33949;BME280;20229;49.856;19.030;2024-03-23T13:17:28;99870.04;;;22.13;35.97
33949;BME280;20229;49.856;19.030;2024-03-23T13:22:43;99868.73;;;21.92;36.48
33949;BME280;20229;49.856;19.030;2024-03-23T13:27:58;99868.63;;;21.78;37.30
33949;BME280;20229;49.856;19.030;2024-03-23T13:33:12;99876.81;;;21.71;37.21
33949;BME280;20229;49.856;19.030;2024-03-23T13:38:28;99889.55;;;21.49;37.38
33949;BME280;20229;49.856;19.030;2024-03-23T13:43:41;99869.61;;;21.21;36.86
33949;BME280;20229;49.856;19.030;2024-03-23T13:48:55;99899.81;;;20.99;38.12
33949;BME280;20229;49.856;19.030;2024-03-23T13:54:09;99979.87;;;20.70;37.85
33949;BME280;20229;49.856;19.030;2024-03-23T13:59:24;100161.19;;;19.99;48.34
33949;BME280;20229;49.856;19.030;2024-03-23T14:04:38;100163.99;;;18.90;55.55
33949;BME280;20229;49.856;19.030;2024-03-23T14:09:52;100214.29;;;18.00;57.16
33949;BME280;20229;49.856;19.030;2024-03-23T14:15:09;100216.66;;;17.35;62.09
33949;BME280;20229;49.856;19.030;2024-03-23T14:20:24;100231.30;;;16.85;63.73
33949;BME280;20229;49.856;19.030;2024-03-23T14:25:45;100251.80;;;16.41;66.05
33949;BME280;20229;49.856;19.030;2024-03-23T14:30:59;100264.77;;;16.08;67.96
33949;BME280;20229;49.856;19.030;2024-03-23T14:36:14;100276.40;;;15.80;68.83
33949;BME280;20229;49.856;19.030;2024-03-23T14:41:27;100256.54;;;15.53;69.44
33949;BME280;20229;49.856;19.030;2024-03-23T14:46:41;100255.60;;;15.32;70.11
33949;BME280;20229;49.856;19.030;2024-03-23T14:51:56;100266.99;;;15.05;69.82
33949;BME280;20229;49.856;19.030;2024-03-23T14:57:10;100234.53;;;14.76;69.65
33949;BME280;20229;49.856;19.030;2024-03-23T15:02:24;100224.66;;;14.51;71.32
33949;BME280;20229;49.856;19.030;2024-03-23T15:07:42;100237.47;;;14.28;71.83
33949;BME280;20229;49.856;19.030;2024-03-23T15:12:55;100214.47;;;14.07;74.01
33949;BME280;20229;49.856;19.030;2024-03-23T15:18:12;100192.95;;;13.90;74.88
33949;BME280;20229;49.856;19.030;2024-03-23T15:23:29;100196.87;;;13.74;74.78
33949;BME280;20229;49.856;19.030;2024-03-23T15:28:47;100201.36;;;13.64;74.24
33949;BME280;20229;49.856;19.030;2024-03-23T15:34:13;100205.16;;;13.50;75.25
33949;BME280;20229;49.856;19.030;2024-03-23T15:39:26;100205.22;;;13.37;74.78
33949;BME280;20229;49.856;19.030;2024-03-23T15:44:41;100209.64;;;13.27;72.38
33949;BME280;20229;49.856;19.030;2024-03-23T15:49:55;100227.41;;;13.22;72.36
33949;BME280;20229;49.856;19.030;2024-03-23T15:55:12;100256.36;;;13.13;71.07
33949;BME280;20229;49.856;19.030;2024-03-23T16:00:26;100284.21;;;13.07;71.19
33949;BME280;20229;49.856;19.030;2024-03-23T16:05:41;100301.13;;;13.01;71.73
33949;BME280;20229;49.856;19.030;2024-03-23T16:10:59;100295.87;;;12.98;71.34
33949;BME280;20229;49.856;19.030;2024-03-23T16:16:13;100289.18;;;12.89;72.21
33949;BME280;20229;49.856;19.030;2024-03-23T16:21:29;100289.73;;;12.81;73.25
33949;BME280;20229;49.856;19.030;2024-03-23T16:26:44;100260.17;;;12.74;76.03
33949;BME280;20229;49.856;19.030;2024-03-23T16:31:59;100280.11;;;12.63;73.46
33949;BME280;20229;49.856;19.030;2024-03-23T16:37:13;100298.97;;;12.55;74.24
33949;BME280;20229;49.856;19.030;2024-03-23T16:42:27;100312.30;;;12.47;76.69
33949;BME280;20229;49.856;19.030;2024-03-23T16:47:41;100309.23;;;12.38;76.58
33949;BME280;20229;49.856;19.030;2024-03-23T16:52:57;100319.65;;;12.33;76.08
33949;BME280;20229;49.856;19.030;2024-03-23T16:58:12;100323.88;;;12.25;76.89
33949;BME280;20229;49.856;19.030;2024-03-23T17:03:27;100345.44;;;12.16;78.50
33949;BME280;20229;49.856;19.030;2024-03-23T17:08:41;100362.21;;;11.98;78.43
33949;BME280;20229;49.856;19.030;2024-03-23T17:13:57;100400.53;;;11.83;78.01
33949;BME280;20229;49.856;19.030;2024-03-23T17:19:10;100484.65;;;11.65;79.51
33949;BME280;20229;49.856;19.030;2024-03-23T17:24:24;100520.98;;;11.39;80.22
33949;BME280;20229;49.856;19.030;2024-03-23T17:29:39;100527.25;;;10.96;82.92
33949;BME280;20229;49.856;19.030;2024-03-23T17:34:55;100525.20;;;10.70;83.47
33949;BME280;20229;49.856;19.030;2024-03-23T17:40:10;100561.26;;;10.45;83.49
33949;BME280;20229;49.856;19.030;2024-03-23T17:45:25;100564.22;;;10.24;84.44
33949;BME280;20229;49.856;19.030;2024-03-23T17:50:39;100597.14;;;10.05;86.03
33949;BME280;20229;49.856;19.030;2024-03-23T17:55:53;100597.12;;;9.90;84.68
33949;BME280;20229;49.856;19.030;2024-03-23T18:01:08;100606.22;;;9.73;85.67
33949;BME280;20229;49.856;19.030;2024-03-23T18:06:22;100608.49;;;9.65;84.61
33949;BME280;20229;49.856;19.030;2024-03-23T18:11:36;100609.14;;;9.52;83.70
33949;BME280;20229;49.856;19.030;2024-03-23T18:16:50;100609.80;;;9.40;83.23
33949;BME280;20229;49.856;19.030;2024-03-23T18:22:04;100611.47;;;9.25;84.93
33949;BME280;20229;49.856;19.030;2024-03-23T18:27:18;100630.37;;;9.11;84.16
33949;BME280;20229;49.856;19.030;2024-03-23T18:32:32;100644.63;;;8.99;84.22
33949;BME280;20229;49.856;19.030;2024-03-23T18:37:50;100648.05;;;8.85;85.01
33949;BME280;20229;49.856;19.030;2024-03-23T18:43:07;100661.38;;;8.72;85.31
33949;BME280;20229;49.856;19.030;2024-03-23T18:48:21;100654.33;;;8.68;85.69
33949;BME280;20229;49.856;19.030;2024-03-23T18:53:35;100647.52;;;8.59;86.04
33949;BME280;20229;49.856;19.030;2024-03-23T18:58:49;100643.48;;;8.49;86.30
33949;BME280;20229;49.856;19.030;2024-03-23T19:04:03;100641.92;;;8.44;88.12
33949;BME280;20229;49.856;19.030;2024-03-23T19:09:17;100636.83;;;8.36;87.20
33949;BME280;20229;49.856;19.030;2024-03-23T19:14:31;100627.50;;;8.23;85.08
33949;BME280;20229;49.856;19.030;2024-03-23T19:19:45;100627.13;;;8.11;86.02
33949;BME280;20229;49.856;19.030;2024-03-23T19:24:59;100659.30;;;8.02;84.77
33949;BME280;20229;49.856;19.030;2024-03-23T19:30:13;100667.76;;;7.96;85.35
33949;BME280;20229;49.856;19.030;2024-03-23T19:35:30;100662.68;;;7.88;85.17
33949;BME280;20229;49.856;19.030;2024-03-23T19:46:09;100685.85;;;7.76;84.70
33949;BME280;20229;49.856;19.030;2024-03-23T19:51:23;100688.64;;;7.75;84.23
33949;BME280;20229;49.856;19.030;2024-03-23T19:56:39;100681.77;;;7.66;84.21
33949;BME280;20229;49.856;19.030;2024-03-23T20:01:53;100679.40;;;7.58;85.42
33949;BME280;20229;49.856;19.030;2024-03-23T20:07:07;100686.06;;;7.51;85.20
33949;BME280;20229;49.856;19.030;2024-03-23T20:12:21;100665.43;;;7.47;85.22
33949;BME280;20229;49.856;19.030;2024-03-23T20:17:34;100664.76;;;7.42;85.31
33949;BME280;20229;49.856;19.030;2024-03-23T20:22:48;100661.34;;;7.37;86.21
33949;BME280;20229;49.856;19.030;2024-03-23T20:28:03;100670.58;;;7.33;84.60
33949;BME280;20229;49.856;19.030;2024-03-23T20:33:16;100667.99;;;7.30;85.31
33949;BME280;20229;49.856;19.030;2024-03-23T20:38:35;100651.04;;;7.25;84.92
33949;BME280;20229;49.856;19.030;2024-03-23T20:43:49;100651.21;;;7.20;84.39
33949;BME280;20229;49.856;19.030;2024-03-23T20:49:03;100674.09;;;7.14;83.83
33949;BME280;20229;49.856;19.030;2024-03-23T20:54:19;100682.37;;;7.11;83.65
33949;BME280;20229;49.856;19.030;2024-03-23T20:59:34;100698.11;;;7.03;84.86
33949;BME280;20229;49.856;19.030;2024-03-23T21:04:48;100702.58;;;7.04;85.50
33949;BME280;20229;49.856;19.030;2024-03-23T21:10:03;100677.32;;;7.02;86.11
33949;BME280;20229;49.856;19.030;2024-03-23T21:15:17;100672.97;;;6.98;87.00
33949;BME280;20229;49.856;19.030;2024-03-23T21:20:31;100666.91;;;6.91;85.72
33949;BME280;20229;49.856;19.030;2024-03-23T21:25:45;100641.62;;;6.91;85.75
33949;BME280;20229;49.856;19.030;2024-03-23T21:31:04;100641.81;;;6.86;85.43
33949;BME280;20229;49.856;19.030;2024-03-23T21:36:18;100637.48;;;6.82;85.49
33949;BME280;20229;49.856;19.030;2024-03-23T21:41:34;100627.63;;;6.80;85.05
33949;BME280;20229;49.856;19.030;2024-03-23T21:46:47;100640.36;;;6.78;85.96
33949;BME280;20229;49.856;19.030;2024-03-23T21:52:01;100629.63;;;6.75;85.65
33949;BME280;20229;49.856;19.030;2024-03-23T21:57:17;100635.13;;;6.73;85.75
33949;BME280;20229;49.856;19.030;2024-03-23T22:02:34;100620.90;;;6.68;85.23
33949;BME280;20229;49.856;19.030;2024-03-23T22:07:48;100629.20;;;6.63;85.64
33949;BME280;20229;49.856;19.030;2024-03-23T22:13:02;100613.20;;;6.57;85.70
33949;BME280;20229;49.856;19.030;2024-03-23T22:18:17;100606.23;;;6.50;86.58
33949;BME280;20229;49.856;19.030;2024-03-23T22:23:31;100611.98;;;6.42;87.27
33949;BME280;20229;49.856;19.030;2024-03-23T22:28:48;100604.12;;;6.36;87.60
33949;BME280;20229;49.856;19.030;2024-03-23T22:34:02;100637.85;;;6.29;87.91
33949;BME280;20229;49.856;19.030;2024-03-23T22:39:17;100649.68;;;6.27;87.50
33949;BME280;20229;49.856;19.030;2024-03-23T22:44:32;100642.55;;;6.24;86.61
33949;BME280;20229;49.856;19.030;2024-03-23T22:49:46;100649.68;;;6.27;86.67
33949;BME280;20229;49.856;19.030;2024-03-23T22:55:00;100645.22;;;6.26;86.40
33949;BME280;20229;49.856;19.030;2024-03-23T23:00:15;100629.95;;;6.23;86.26
33949;BME280;20229;49.856;19.030;2024-03-23T23:05:31;100611.17;;;6.18;86.10
33949;BME280;20229;49.856;19.030;2024-03-23T23:10:46;100617.63;;;6.14;86.17
33949;BME280;20229;49.856;19.030;2024-03-23T23:16:00;100626.71;;;6.13;86.43
33949;BME280;20229;49.856;19.030;2024-03-23T23:21:14;100626.79;;;6.12;86.78
33949;BME280;20229;49.856;19.030;2024-03-23T23:26:28;100632.36;;;6.07;86.92
33949;BME280;20229;49.856;19.030;2024-03-23T23:31:42;100634.20;;;6.07;87.05
33949;BME280;20229;49.856;19.030;2024-03-23T23:37:02;100633.32;;;6.06;87.54
33949;BME280;20229;49.856;19.030;2024-03-23T23:42:16;100631.48;;;6.07;87.30
33949;BME280;20229;49.856;19.030;2024-03-23T23:47:34;100608.81;;;6.09;87.55
33949;BME280;20229;49.856;19.030;2024-03-23T23:52:49;100606.86;;;6.13;88.00
33949;BME280;20229;49.856;19.030;2024-03-23T23:58:03;100587.02;;;6.12;87.47
